Allport, Arkansas
Current Conditions -  °F | °C
As of 10:55 AM on Monday 22 Dec 2014 (Local Time) from KSGT Reporting Station
Overcast Overcast  
Wind Chill: 52°   Ceiling: 400
Heat Index: 52°   Visibility: 4mi
Dew Point: 48°   Wind: 14mph
Humidity: 88%   Direction: 150°SSE
Pressure: 29.73"   Gusts: NA
Location:  34.5894°N, 91.9107°W
Report Text: KSGT 221655Z 15012KT 4SM OVC004 11/09 A2973 RMK AO1
Loading
Personal Weather Stations






























Interactive Weather Map New forecast layout! Learn more

10-Day Weather Forecast

Advertisements
Track Severe Weather on mobile